sensor_id;sensor_type;location;lat;lon;timestamp;P1;durP1;ratioP1;P2;durP2;ratioP2
2840;SDS011;53423;49.224;12.074;2023-06-01T00:00:28;3.73;;;2.90;;
2840;SDS011;53423;49.224;12.074;2023-06-01T00:02:56;5.60;;;2.73;;
2840;SDS011;53423;49.224;12.074;2023-06-01T00:05:24;3.43;;;2.70;;
2840;SDS011;53423;49.224;12.074;2023-06-01T00:07:52;5.17;;;3.03;;
2840;SDS011;53423;49.224;12.074;2023-06-01T00:10:20;3.50;;;3.20;;
2840;SDS011;53423;49.224;12.074;2023-06-01T00:12:49;3.50;;;2.73;;
2840;SDS011;53423;49.224;12.074;2023-06-01T00:15:17;3.20;;;2.77;;
2840;SDS011;53423;49.224;12.074;2023-06-01T00:17:45;3.53;;;2.90;;
2840;SDS011;53423;49.224;12.074;2023-06-01T00:20:18;3.47;;;2.90;;
2840;SDS011;53423;49.224;12.074;2023-06-01T00:22:46;3.60;;;2.90;;
2840;SDS011;53423;49.224;12.074;2023-06-01T00:25:15;4.53;;;3.00;;
2840;SDS011;53423;49.224;12.074;2023-06-01T00:27:43;4.50;;;3.17;;
2840;SDS011;53423;49.224;12.074;2023-06-01T00:30:13;3.70;;;3.20;;
2840;SDS011;53423;49.224;12.074;2023-06-01T00:32:41;3.87;;;3.10;;
2840;SDS011;53423;49.224;12.074;2023-06-01T00:35:09;5.13;;;3.23;;
2840;SDS011;53423;49.224;12.074;2023-06-01T00:37:37;3.33;;;2.67;;
2840;SDS011;53423;49.224;12.074;2023-06-01T00:40:05;3.80;;;2.80;;
2840;SDS011;53423;49.224;12.074;2023-06-01T00:42:34;3.97;;;2.87;;
2840;SDS011;53423;49.224;12.074;2023-06-01T00:45:02;3.37;;;3.07;;
2840;SDS011;53423;49.224;12.074;2023-06-01T00:47:32;3.60;;;3.07;;
2840;SDS011;53423;49.224;12.074;2023-06-01T00:50:06;5.43;;;3.23;;
2840;SDS011;53423;49.224;12.074;2023-06-01T00:52:35;3.57;;;3.13;;
2840;SDS011;53423;49.224;12.074;2023-06-01T00:55:05;3.20;;;2.90;;
2840;SDS011;53423;49.224;12.074;2023-06-01T00:57:33;3.60;;;3.30;;
2840;SDS011;53423;49.224;12.074;2023-06-01T01:00:02;7.33;;;3.53;;
2840;SDS011;53423;49.224;12.074;2023-06-01T01:02:39;3.30;;;3.00;;
2840;SDS011;53423;49.224;12.074;2023-06-01T01:05:11;6.13;;;3.53;;
2840;SDS011;53423;49.224;12.074;2023-06-01T01:07:42;6.03;;;3.13;;
2840;SDS011;53423;49.224;12.074;2023-06-01T01:10:20;7.07;;;3.43;;
2840;SDS011;53423;49.224;12.074;2023-06-01T01:12:54;4.87;;;3.30;;
2840;SDS011;53423;49.224;12.074;2023-06-01T01:15:32;3.87;;;3.00;;
2840;SDS011;53423;49.224;12.074;2023-06-01T01:18:11;3.00;;;2.70;;
2840;SDS011;53423;49.224;12.074;2023-06-01T01:20:44;4.67;;;3.13;;
2840;SDS011;53423;49.224;12.074;2023-06-01T01:23:27;3.40;;;3.10;;
2840;SDS011;53423;49.224;12.074;2023-06-01T01:26:09;3.93;;;3.20;;
2840;SDS011;53423;49.224;12.074;2023-06-01T01:28:48;3.80;;;3.20;;
2840;SDS011;53423;49.224;12.074;2023-06-01T01:31:19;4.00;;;3.00;;
2840;SDS011;53423;49.224;12.074;2023-06-01T01:33:52;3.80;;;3.00;;
2840;SDS011;53423;49.224;12.074;2023-06-01T01:36:21;4.07;;;3.30;;
2840;SDS011;53423;49.224;12.074;2023-06-01T01:38:50;3.87;;;3.53;;
2840;SDS011;53423;49.224;12.074;2023-06-01T01:41:19;3.80;;;3.40;;
2840;SDS011;53423;49.224;12.074;2023-06-01T01:43:49;3.50;;;3.20;;
2840;SDS011;53423;49.224;12.074;2023-06-01T01:46:21;3.50;;;3.23;;
2840;SDS011;53423;49.224;12.074;2023-06-01T01:48:54;3.47;;;3.10;;
2840;SDS011;53423;49.224;12.074;2023-06-01T01:51:31;5.23;;;3.50;;
2840;SDS011;53423;49.224;12.074;2023-06-01T01:54:05;5.37;;;3.47;;
2840;SDS011;53423;49.224;12.074;2023-06-01T01:56:34;4.00;;;3.43;;
2840;SDS011;53423;49.224;12.074;2023-06-01T01:59:04;3.50;;;3.20;;
2840;SDS011;53423;49.224;12.074;2023-06-01T02:01:33;4.07;;;3.27;;
2840;SDS011;53423;49.224;12.074;2023-06-01T02:04:01;2.97;;;2.77;;
2840;SDS011;53423;49.224;12.074;2023-06-01T02:06:30;5.57;;;3.30;;
2840;SDS011;53423;49.224;12.074;2023-06-01T02:08:59;5.23;;;3.30;;
2840;SDS011;53423;49.224;12.074;2023-06-01T02:11:27;4.23;;;3.27;;
2840;SDS011;53423;49.224;12.074;2023-06-01T02:13:55;4.83;;;3.67;;
2840;SDS011;53423;49.224;12.074;2023-06-01T02:16:25;4.00;;;3.60;;
2840;SDS011;53423;49.224;12.074;2023-06-01T02:18:53;4.53;;;3.67;;
2840;SDS011;53423;49.224;12.074;2023-06-01T02:21:24;3.40;;;3.10;;
2840;SDS011;53423;49.224;12.074;2023-06-01T02:23:52;3.73;;;3.43;;
2840;SDS011;53423;49.224;12.074;2023-06-01T02:26:20;3.97;;;3.57;;
2840;SDS011;53423;49.224;12.074;2023-06-01T02:28:48;5.37;;;3.43;;
2840;SDS011;53423;49.224;12.074;2023-06-01T02:31:16;3.77;;;3.13;;
2840;SDS011;53423;49.224;12.074;2023-06-01T02:33:46;5.83;;;3.90;;
2840;SDS011;53423;49.224;12.074;2023-06-01T02:36:14;3.60;;;3.30;;
2840;SDS011;53423;49.224;12.074;2023-06-01T02:38:42;3.57;;;3.27;;
2840;SDS011;53423;49.224;12.074;2023-06-01T02:41:11;5.00;;;3.27;;
2840;SDS011;53423;49.224;12.074;2023-06-01T02:43:39;4.93;;;3.53;;
2840;SDS011;53423;49.224;12.074;2023-06-01T02:46:07;4.13;;;3.20;;
2840;SDS011;53423;49.224;12.074;2023-06-01T02:48:35;3.80;;;3.40;;
2840;SDS011;53423;49.224;12.074;2023-06-01T02:51:05;3.87;;;3.57;;
2840;SDS011;53423;49.224;12.074;2023-06-01T02:53:33;3.80;;;3.17;;
2840;SDS011;53423;49.224;12.074;2023-06-01T02:56:00;4.67;;;3.40;;
2840;SDS011;53423;49.224;12.074;2023-06-01T02:58:28;3.60;;;3.30;;
2840;SDS011;53423;49.224;12.074;2023-06-01T03:00:56;4.10;;;3.60;;
2840;SDS011;53423;49.224;12.074;2023-06-01T03:03:25;3.83;;;3.40;;
2840;SDS011;53423;49.224;12.074;2023-06-01T03:05:53;4.33;;;3.30;;
2840;SDS011;53423;49.224;12.074;2023-06-01T03:08:23;3.57;;;3.27;;
2840;SDS011;53423;49.224;12.074;2023-06-01T03:10:52;3.80;;;3.50;;
2840;SDS011;53423;49.224;12.074;2023-06-01T03:13:20;3.53;;;3.23;;
2840;SDS011;53423;49.224;12.074;2023-06-01T03:15:48;4.60;;;3.50;;
2840;SDS011;53423;49.224;12.074;2023-06-01T03:18:16;4.27;;;3.57;;
2840;SDS011;53423;49.224;12.074;2023-06-01T03:20:44;4.90;;;3.50;;
2840;SDS011;53423;49.224;12.074;2023-06-01T03:23:13;3.73;;;3.43;;
2840;SDS011;53423;49.224;12.074;2023-06-01T03:25:43;3.90;;;3.40;;
2840;SDS011;53423;49.224;12.074;2023-06-01T03:28:11;4.87;;;3.23;;
2840;SDS011;53423;49.224;12.074;2023-06-01T03:30:39;4.67;;;3.70;;
2840;SDS011;53423;49.224;12.074;2023-06-01T03:33:08;4.20;;;3.50;;
2840;SDS011;53423;49.224;12.074;2023-06-01T03:35:37;4.40;;;3.50;;
2840;SDS011;53423;49.224;12.074;2023-06-01T03:38:05;3.53;;;3.23;;
2840;SDS011;53423;49.224;12.074;2023-06-01T03:40:33;5.13;;;3.80;;
2840;SDS011;53423;49.224;12.074;2023-06-01T03:43:02;5.23;;;3.33;;
2840;SDS011;53423;49.224;12.074;2023-06-01T03:45:30;5.37;;;3.70;;
2840;SDS011;53423;49.224;12.074;2023-06-01T03:47:58;3.83;;;3.30;;
2840;SDS011;53423;49.224;12.074;2023-06-01T03:50:26;4.80;;;3.70;;
2840;SDS011;53423;49.224;12.074;2023-06-01T03:52:54;4.27;;;3.57;;
2840;SDS011;53423;49.224;12.074;2023-06-01T03:55:22;5.63;;;3.60;;
2840;SDS011;53423;49.224;12.074;2023-06-01T03:57:50;3.90;;;3.50;;
2840;SDS011;53423;49.224;12.074;2023-06-01T04:00:20;3.93;;;3.53;;
2840;SDS011;53423;49.224;12.074;2023-06-01T04:02:50;4.80;;;3.70;;
2840;SDS011;53423;49.224;12.074;2023-06-01T04:05:19;4.20;;;3.80;;
2840;SDS011;53423;49.224;12.074;2023-06-01T04:07:50;4.20;;;3.80;;
2840;SDS011;53423;49.224;12.074;2023-06-01T04:10:19;5.23;;;3.60;;
2840;SDS011;53423;49.224;12.074;2023-06-01T04:12:48;5.37;;;3.80;;
2840;SDS011;53423;49.224;12.074;2023-06-01T04:15:17;4.00;;;3.60;;
2840;SDS011;53423;49.224;12.074;2023-06-01T04:17:47;4.33;;;3.93;;
2840;SDS011;53423;49.224;12.074;2023-06-01T04:20:16;5.17;;;4.00;;
2840;SDS011;53423;49.224;12.074;2023-06-01T04:22:45;4.43;;;3.80;;
2840;SDS011;53423;49.224;12.074;2023-06-01T04:25:14;5.07;;;3.90;;
2840;SDS011;53423;49.224;12.074;2023-06-01T04:27:45;5.67;;;3.60;;
2840;SDS011;53423;49.224;12.074;2023-06-01T04:30:15;4.30;;;3.80;;
2840;SDS011;53423;49.224;12.074;2023-06-01T04:32:44;6.93;;;3.90;;
2840;SDS011;53423;49.224;12.074;2023-06-01T04:35:15;6.57;;;3.87;;
2840;SDS011;53423;49.224;12.074;2023-06-01T04:37:43;4.20;;;3.80;;
2840;SDS011;53423;49.224;12.074;2023-06-01T04:40:11;5.23;;;4.33;;
2840;SDS011;53423;49.224;12.074;2023-06-01T04:42:40;7.13;;;3.80;;
2840;SDS011;53423;49.224;12.074;2023-06-01T04:45:12;5.07;;;3.97;;
2840;SDS011;53423;49.224;12.074;2023-06-01T04:47:42;6.33;;;4.33;;
2840;SDS011;53423;49.224;12.074;2023-06-01T04:50:14;5.50;;;4.30;;
2840;SDS011;53423;49.224;12.074;2023-06-01T04:52:43;6.20;;;4.00;;
2840;SDS011;53423;49.224;12.074;2023-06-01T04:55:11;7.33;;;4.37;;
2840;SDS011;53423;49.224;12.074;2023-06-01T04:57:40;4.50;;;4.00;;
2840;SDS011;53423;49.224;12.074;2023-06-01T05:00:10;5.43;;;4.00;;
2840;SDS011;53423;49.224;12.074;2023-06-01T05:02:40;4.53;;;4.10;;
2840;SDS011;53423;49.224;12.074;2023-06-01T05:05:09;7.87;;;4.30;;
2840;SDS011;53423;49.224;12.074;2023-06-01T05:07:39;4.53;;;4.00;;
2840;SDS011;53423;49.224;12.074;2023-06-01T05:10:08;5.50;;;4.30;;
2840;SDS011;53423;49.224;12.074;2023-06-01T05:12:38;7.10;;;4.60;;
2840;SDS011;53423;49.224;12.074;2023-06-01T05:15:06;8.70;;;4.77;;
2840;SDS011;53423;49.224;12.074;2023-06-01T05:17:35;4.80;;;4.33;;
2840;SDS011;53423;49.224;12.074;2023-06-01T05:20:05;6.23;;;4.43;;
2840;SDS011;53423;49.224;12.074;2023-06-01T05:22:35;6.27;;;4.10;;
2840;SDS011;53423;49.224;12.074;2023-06-01T05:25:05;5.57;;;4.40;;
2840;SDS011;53423;49.224;12.074;2023-06-01T05:27:34;6.80;;;4.60;;
2840;SDS011;53423;49.224;12.074;2023-06-01T05:30:02;5.00;;;4.43;;
2840;SDS011;53423;49.224;12.074;2023-06-01T05:32:31;6.63;;;4.60;;
2840;SDS011;53423;49.224;12.074;2023-06-01T05:34:59;5.40;;;4.23;;
2840;SDS011;53423;49.224;12.074;2023-06-01T05:37:27;6.83;;;4.77;;
2840;SDS011;53423;49.224;12.074;2023-06-01T05:39:55;8.30;;;4.47;;
2840;SDS011;53423;49.224;12.074;2023-06-01T05:42:25;4.37;;;3.97;;
2840;SDS011;53423;49.224;12.074;2023-06-01T05:44:53;5.97;;;3.70;;
2840;SDS011;53423;49.224;12.074;2023-06-01T05:47:20;5.67;;;3.80;;
2840;SDS011;53423;49.224;12.074;2023-06-01T05:49:48;5.53;;;4.07;;
2840;SDS011;53423;49.224;12.074;2023-06-01T05:52:17;3.97;;;3.40;;
2840;SDS011;53423;49.224;12.074;2023-06-01T05:54:45;4.77;;;3.40;;
2840;SDS011;53423;49.224;12.074;2023-06-01T05:57:15;5.87;;;3.47;;
2840;SDS011;53423;49.224;12.074;2023-06-01T05:59:44;3.30;;;3.00;;
2840;SDS011;53423;49.224;12.074;2023-06-01T06:02:13;7.60;;;3.30;;
2840;SDS011;53423;49.224;12.074;2023-06-01T06:04:41;3.20;;;2.83;;
2840;SDS011;53423;49.224;12.074;2023-06-01T06:07:10;4.37;;;3.27;;
2840;SDS011;53423;49.224;12.074;2023-06-01T06:09:39;4.17;;;2.80;;
2840;SDS011;53423;49.224;12.074;2023-06-01T06:12:07;4.23;;;2.97;;
2840;SDS011;53423;49.224;12.074;2023-06-01T06:14:35;4.10;;;3.00;;
2840;SDS011;53423;49.224;12.074;2023-06-01T06:17:08;4.90;;;2.97;;
2840;SDS011;53423;49.224;12.074;2023-06-01T06:19:36;4.70;;;3.30;;
2840;SDS011;53423;49.224;12.074;2023-06-01T06:22:04;8.30;;;3.63;;
2840;SDS011;53423;49.224;12.074;2023-06-01T06:24:32;4.33;;;3.30;;
2840;SDS011;53423;49.224;12.074;2023-06-01T06:27:00;5.37;;;3.83;;
2840;SDS011;53423;49.224;12.074;2023-06-01T06:29:28;5.97;;;3.70;;
2840;SDS011;53423;49.224;12.074;2023-06-01T06:31:56;6.13;;;3.60;;
2840;SDS011;53423;49.224;12.074;2023-06-01T06:34:26;6.27;;;3.57;;
2840;SDS011;53423;49.224;12.074;2023-06-01T06:37:00;5.67;;;3.60;;
2840;SDS011;53423;49.224;12.074;2023-06-01T06:39:28;5.60;;;3.30;;
2840;SDS011;53423;49.224;12.074;2023-06-01T06:41:56;4.40;;;3.20;;
2840;SDS011;53423;49.224;12.074;2023-06-01T06:44:23;7.00;;;3.37;;
2840;SDS011;53423;49.224;12.074;2023-06-01T06:46:52;5.93;;;3.73;;
2840;SDS011;53423;49.224;12.074;2023-06-01T06:49:20;7.17;;;3.97;;
2840;SDS011;53423;49.224;12.074;2023-06-01T06:51:49;4.07;;;3.10;;
2840;SDS011;53423;49.224;12.074;2023-06-01T06:54:17;7.13;;;3.47;;
2840;SDS011;53423;49.224;12.074;2023-06-01T06:56:45;7.10;;;3.60;;
2840;SDS011;53423;49.224;12.074;2023-06-01T06:59:13;5.13;;;3.23;;
2840;SDS011;53423;49.224;12.074;2023-06-01T07:01:41;4.00;;;3.23;;
2840;SDS011;53423;49.224;12.074;2023-06-01T07:04:09;4.97;;;3.30;;
2840;SDS011;53423;49.224;12.074;2023-06-01T07:06:37;5.03;;;3.20;;
2840;SDS011;53423;49.224;12.074;2023-06-01T07:09:07;4.80;;;2.70;;
2840;SDS011;53423;49.224;12.074;2023-06-01T07:11:35;8.83;;;3.10;;
2840;SDS011;53423;49.224;12.074;2023-06-01T07:14:03;3.05;;;2.63;;
2840;SDS011;53423;49.224;12.074;2023-06-01T07:16:31;5.40;;;2.70;;
2840;SDS011;53423;49.224;12.074;2023-06-01T07:18:59;6.03;;;2.70;;
2840;SDS011;53423;49.224;12.074;2023-06-01T07:21:27;5.47;;;2.92;;
2840;SDS011;53423;49.224;12.074;2023-06-01T07:23:56;4.95;;;3.05;;
2840;SDS011;53423;49.224;12.074;2023-06-01T07:26:25;4.68;;;3.00;;
2840;SDS011;53423;49.224;12.074;2023-06-01T07:28:55;6.22;;;3.00;;
2840;SDS011;53423;49.224;12.074;2023-06-01T07:31:23;5.40;;;2.83;;
2840;SDS011;53423;49.224;12.074;2023-06-01T07:33:52;3.88;;;2.60;;
2840;SDS011;53423;49.224;12.074;2023-06-01T07:36:21;5.60;;;2.65;;
2840;SDS011;53423;49.224;12.074;2023-06-01T07:38:50;3.30;;;2.50;;
2840;SDS011;53423;49.224;12.074;2023-06-01T07:41:18;5.78;;;2.70;;
2840;SDS011;53423;49.224;12.074;2023-06-01T07:43:47;2.55;;;2.35;;
2840;SDS011;53423;49.224;12.074;2023-06-01T07:46:15;3.55;;;2.60;;
2840;SDS011;53423;49.224;12.074;2023-06-01T07:48:43;3.05;;;2.38;;
2840;SDS011;53423;49.224;12.074;2023-06-01T07:51:11;5.05;;;2.70;;
2840;SDS011;53423;49.224;12.074;2023-06-01T07:53:39;4.93;;;2.80;;
2840;SDS011;53423;49.224;12.074;2023-06-01T07:56:07;4.97;;;3.05;;
2840;SDS011;53423;49.224;12.074;2023-06-01T07:58:35;3.60;;;2.88;;
2840;SDS011;53423;49.224;12.074;2023-06-01T08:01:05;3.08;;;2.47;;
2840;SDS011;53423;49.224;12.074;2023-06-01T08:03:33;4.25;;;2.75;;
2840;SDS011;53423;49.224;12.074;2023-06-01T08:06:02;4.20;;;2.65;;
2840;SDS011;53423;49.224;12.074;2023-06-01T08:08:32;3.17;;;2.70;;
2840;SDS011;53423;49.224;12.074;2023-06-01T08:11:00;4.75;;;2.60;;
2840;SDS011;53423;49.224;12.074;2023-06-01T08:13:28;4.88;;;2.50;;
2840;SDS011;53423;49.224;12.074;2023-06-01T08:15:56;4.68;;;2.58;;
2840;SDS011;53423;49.224;12.074;2023-06-01T08:18:26;4.20;;;2.30;;
2840;SDS011;53423;49.224;12.074;2023-06-01T08:20:55;5.97;;;2.65;;
2840;SDS011;53423;49.224;12.074;2023-06-01T08:23:23;3.22;;;2.28;;
2840;SDS011;53423;49.224;12.074;2023-06-01T08:25:51;5.93;;;3.20;;
2840;SDS011;53423;49.224;12.074;2023-06-01T08:28:19;4.82;;;2.80;;
2840;SDS011;53423;49.224;12.074;2023-06-01T08:30:47;3.33;;;2.80;;
2840;SDS011;53423;49.224;12.074;2023-06-01T08:33:15;5.97;;;2.53;;
2840;SDS011;53423;49.224;12.074;2023-06-01T08:35:44;2.85;;;2.65;;
2840;SDS011;53423;49.224;12.074;2023-06-01T08:38:12;2.60;;;2.40;;
2840;SDS011;53423;49.224;12.074;2023-06-01T08:40:40;3.65;;;2.70;;
2840;SDS011;53423;49.224;12.074;2023-06-01T08:43:10;3.78;;;2.67;;
2840;SDS011;53423;49.224;12.074;2023-06-01T08:45:44;5.35;;;2.42;;
2840;SDS011;53423;49.224;12.074;2023-06-01T08:48:15;4.63;;;2.70;;
2840;SDS011;53423;49.224;12.074;2023-06-01T08:50:49;3.97;;;2.50;;
2840;SDS011;53423;49.224;12.074;2023-06-01T08:53:17;4.95;;;2.67;;
2840;SDS011;53423;49.224;12.074;2023-06-01T08:55:50;4.30;;;2.67;;
2840;SDS011;53423;49.224;12.074;2023-06-01T08:58:19;5.95;;;3.08;;
2840;SDS011;53423;49.224;12.074;2023-06-01T09:00:47;5.35;;;3.45;;
2840;SDS011;53423;49.224;12.074;2023-06-01T09:03:15;3.85;;;2.80;;
2840;SDS011;53423;49.224;12.074;2023-06-01T09:05:44;3.47;;;2.90;;
2840;SDS011;53423;49.224;12.074;2023-06-01T09:08:13;4.80;;;2.95;;
2840;SDS011;53423;49.224;12.074;2023-06-01T09:10:42;3.92;;;2.92;;
2840;SDS011;53423;49.224;12.074;2023-06-01T09:13:10;3.35;;;3.05;;
2840;SDS011;53423;49.224;12.074;2023-06-01T09:15:49;5.78;;;3.60;;
2840;SDS011;53423;49.224;12.074;2023-06-01T09:18:18;5.75;;;3.05;;
2840;SDS011;53423;49.224;12.074;2023-06-01T09:20:47;3.50;;;3.20;;
2840;SDS011;53423;49.224;12.074;2023-06-01T09:23:23;4.65;;;2.83;;
2840;SDS011;53423;49.224;12.074;2023-06-01T09:26:03;4.65;;;3.20;;
2840;SDS011;53423;49.224;12.074;2023-06-01T09:31:38;3.88;;;3.25;;
2840;SDS011;53423;49.224;12.074;2023-06-01T09:34:11;4.50;;;2.97;;
2840;SDS011;53423;49.224;12.074;2023-06-01T09:36:42;3.38;;;3.00;;
2840;SDS011;53423;49.224;12.074;2023-06-01T09:39:11;4.22;;;2.90;;
2840;SDS011;53423;49.224;12.074;2023-06-01T09:41:45;3.60;;;2.90;;
2840;SDS011;53423;49.224;12.074;2023-06-01T09:44:13;3.45;;;3.10;;
2840;SDS011;53423;49.224;12.074;2023-06-01T09:46:45;3.65;;;3.00;;
2840;SDS011;53423;49.224;12.074;2023-06-01T09:49:21;4.20;;;2.80;;
2840;SDS011;53423;49.224;12.074;2023-06-01T09:51:51;4.28;;;2.95;;
2840;SDS011;53423;49.224;12.074;2023-06-01T09:54:25;3.88;;;2.80;;
2840;SDS011;53423;49.224;12.074;2023-06-01T09:56:54;7.15;;;3.28;;
2840;SDS011;53423;49.224;12.074;2023-06-01T09:59:38;4.25;;;2.90;;
2840;SDS011;53423;49.224;12.074;2023-06-01T10:02:08;3.92;;;2.60;;
2840;SDS011;53423;49.224;12.074;2023-06-01T10:04:41;3.00;;;2.72;;
2840;SDS011;53423;49.224;12.074;2023-06-01T10:07:12;4.07;;;2.95;;
2840;SDS011;53423;49.224;12.074;2023-06-01T10:09:43;3.75;;;3.45;;
2840;SDS011;53423;49.224;12.074;2023-06-01T10:12:13;4.30;;;2.63;;
2840;SDS011;53423;49.224;12.074;2023-06-01T10:14:41;4.25;;;2.92;;
2840;SDS011;53423;49.224;12.074;2023-06-01T10:17:09;4.03;;;2.70;;
2840;SDS011;53423;49.224;12.074;2023-06-01T10:19:38;4.78;;;2.95;;
2840;SDS011;53423;49.224;12.074;2023-06-01T10:22:06;8.13;;;7.55;;
2840;SDS011;53423;49.224;12.074;2023-06-01T10:24:34;4.55;;;4.15;;
2840;SDS011;53423;49.224;12.074;2023-06-01T10:27:11;3.45;;;3.15;;
2840;SDS011;53423;49.224;12.074;2023-06-01T10:29:46;4.38;;;3.55;;
2840;SDS011;53423;49.224;12.074;2023-06-01T10:38:31;3.47;;;2.85;;
2840;SDS011;53423;49.224;12.074;2023-06-01T10:44:00;3.10;;;2.85;;
2840;SDS011;53423;49.224;12.074;2023-06-01T10:46:35;3.88;;;3.15;;
2840;SDS011;53423;49.224;12.074;2023-06-01T10:49:05;4.05;;;2.95;;
2840;SDS011;53423;49.224;12.074;2023-06-01T10:51:34;4.15;;;2.70;;
2840;SDS011;53423;49.224;12.074;2023-06-01T11:02:42;3.53;;;3.22;;
2840;SDS011;53423;49.224;12.074;2023-06-01T11:11:19;5.32;;;3.35;;
2840;SDS011;53423;49.224;12.074;2023-06-01T11:14:06;3.22;;;2.92;;
2840;SDS011;53423;49.224;12.074;2023-06-01T11:16:37;3.40;;;3.10;;
2840;SDS011;53423;49.224;12.074;2023-06-01T11:19:06;7.00;;;3.60;;
2840;SDS011;53423;49.224;12.074;2023-06-01T11:21:36;4.20;;;3.20;;
2840;SDS011;53423;49.224;12.074;2023-06-01T11:24:07;7.00;;;2.88;;
2840;SDS011;53423;49.224;12.074;2023-06-01T11:26:38;3.83;;;3.10;;
2840;SDS011;53423;49.224;12.074;2023-06-01T11:29:13;5.05;;;2.90;;
2840;SDS011;53423;49.224;12.074;2023-06-01T11:31:45;3.00;;;2.75;;
2840;SDS011;53423;49.224;12.074;2023-06-01T11:34:14;4.47;;;3.45;;
2840;SDS011;53423;49.224;12.074;2023-06-01T11:36:45;3.20;;;2.90;;
2840;SDS011;53423;49.224;12.074;2023-06-01T11:39:22;3.47;;;3.17;;
2840;SDS011;53423;49.224;12.074;2023-06-01T11:41:52;4.43;;;3.10;;
2840;SDS011;53423;49.224;12.074;2023-06-01T11:44:32;3.42;;;2.65;;
2840;SDS011;53423;49.224;12.074;2023-06-01T11:47:02;3.60;;;2.80;;
2840;SDS011;53423;49.224;12.074;2023-06-01T11:49:39;3.00;;;2.80;;
2840;SDS011;53423;49.224;12.074;2023-06-01T11:52:10;3.10;;;2.80;;
2840;SDS011;53423;49.224;12.074;2023-06-01T11:54:38;4.18;;;3.20;;
2840;SDS011;53423;49.224;12.074;2023-06-01T11:57:07;3.30;;;3.00;;
2840;SDS011;53423;49.224;12.074;2023-06-01T11:59:36;5.60;;;3.42;;
2840;SDS011;53423;49.224;12.074;2023-06-01T12:02:16;3.67;;;3.22;;
2840;SDS011;53423;49.224;12.074;2023-06-01T12:04:55;5.60;;;3.33;;
2840;SDS011;53423;49.224;12.074;2023-06-01T12:07:25;3.38;;;3.08;;
2840;SDS011;53423;49.224;12.074;2023-06-01T12:09:54;3.10;;;2.90;;
2840;SDS011;53423;49.224;12.074;2023-06-01T12:12:24;4.53;;;3.22;;
2840;SDS011;53423;49.224;12.074;2023-06-01T12:14:55;3.50;;;3.13;;
2840;SDS011;53423;49.224;12.074;2023-06-01T12:17:24;3.80;;;2.90;;
2840;SDS011;53423;49.224;12.074;2023-06-01T12:19:52;3.58;;;3.03;;
2840;SDS011;53423;49.224;12.074;2023-06-01T12:22:23;4.22;;;2.80;;
2840;SDS011;53423;49.224;12.074;2023-06-01T12:25:04;5.20;;;3.25;;
2840;SDS011;53423;49.224;12.074;2023-06-01T12:27:34;4.30;;;3.00;;
2840;SDS011;53423;49.224;12.074;2023-06-01T12:30:19;3.80;;;2.97;;
2840;SDS011;53423;49.224;12.074;2023-06-01T12:32:50;7.22;;;3.17;;
2840;SDS011;53423;49.224;12.074;2023-06-01T12:35:18;3.42;;;3.13;;
2840;SDS011;53423;49.224;12.074;2023-06-01T12:38:03;3.50;;;3.10;;
2840;SDS011;53423;49.224;12.074;2023-06-01T12:40:35;4.20;;;3.17;;
2840;SDS011;53423;49.224;12.074;2023-06-01T12:43:03;3.60;;;3.20;;
2840;SDS011;53423;49.224;12.074;2023-06-01T12:45:35;3.55;;;3.22;;
2840;SDS011;53423;49.224;12.074;2023-06-01T12:48:06;3.45;;;3.03;;
2840;SDS011;53423;49.224;12.074;2023-06-01T12:50:42;3.72;;;2.60;;
2840;SDS011;53423;49.224;12.074;2023-06-01T12:53:10;3.00;;;2.80;;
2840;SDS011;53423;49.224;12.074;2023-06-01T12:55:38;2.90;;;2.70;;
2840;SDS011;53423;49.224;12.074;2023-06-01T12:58:06;3.00;;;2.80;;
2840;SDS011;53423;49.224;12.074;2023-06-01T13:00:54;3.22;;;2.92;;
2840;SDS011;53423;49.224;12.074;2023-06-01T13:03:42;3.60;;;2.80;;
2840;SDS011;53423;49.224;12.074;2023-06-01T13:06:10;3.05;;;2.80;;
2840;SDS011;53423;49.224;12.074;2023-06-01T13:08:38;4.05;;;3.00;;
2840;SDS011;53423;49.224;12.074;2023-06-01T13:11:06;2.90;;;2.70;;
2840;SDS011;53423;49.224;12.074;2023-06-01T13:13:35;3.20;;;2.90;;
2840;SDS011;53423;49.224;12.074;2023-06-01T13:16:10;2.80;;;2.60;;
2840;SDS011;53423;49.224;12.074;2023-06-01T13:18:38;3.00;;;2.80;;
2840;SDS011;53423;49.224;12.074;2023-06-01T13:21:06;3.50;;;2.78;;
2840;SDS011;53423;49.224;12.074;2023-06-01T13:23:34;3.10;;;2.80;;
2840;SDS011;53423;49.224;12.074;2023-06-01T13:26:02;3.17;;;2.88;;
2840;SDS011;53423;49.224;12.074;2023-06-01T13:28:30;3.70;;;2.80;;
2840;SDS011;53423;49.224;12.074;2023-06-01T13:30:58;3.10;;;2.80;;
2840;SDS011;53423;49.224;12.074;2023-06-01T13:33:28;4.43;;;3.13;;
2840;SDS011;53423;49.224;12.074;2023-06-01T13:35:56;4.78;;;2.80;;
2840;SDS011;53423;49.224;12.074;2023-06-01T13:38:24;2.92;;;2.72;;
2840;SDS011;53423;49.224;12.074;2023-06-01T13:40:52;3.50;;;2.90;;
2840;SDS011;53423;49.224;12.074;2023-06-01T13:43:20;3.22;;;2.92;;
2840;SDS011;53423;49.224;12.074;2023-06-01T13:45:48;3.20;;;2.92;;
2840;SDS011;53423;49.224;12.074;2023-06-01T13:48:16;3.08;;;2.75;;
2840;SDS011;53423;49.224;12.074;2023-06-01T13:50:50;4.10;;;2.80;;
2840;SDS011;53423;49.224;12.074;2023-06-01T13:53:19;3.97;;;2.83;;
2840;SDS011;53423;49.224;12.074;2023-06-01T13:55:47;3.40;;;3.10;;
2840;SDS011;53423;49.224;12.074;2023-06-01T13:58:15;3.90;;;3.03;;
2840;SDS011;53423;49.224;12.074;2023-06-01T14:00:43;3.95;;;3.08;;
2840;SDS011;53423;49.224;12.074;2023-06-01T14:03:11;3.22;;;2.90;;
2840;SDS011;53423;49.224;12.074;2023-06-01T14:05:39;5.90;;;3.20;;
2840;SDS011;53423;49.224;12.074;2023-06-01T14:08:20;3.00;;;2.70;;
2840;SDS011;53423;49.224;12.074;2023-06-01T14:10:48;3.35;;;3.05;;
2840;SDS011;53423;49.224;12.074;2023-06-01T14:13:16;4.22;;;3.10;;
2840;SDS011;53423;49.224;12.074;2023-06-01T14:15:44;3.38;;;2.83;;
2840;SDS011;53423;49.224;12.074;2023-06-01T14:18:13;3.25;;;3.05;;
2840;SDS011;53423;49.224;12.074;2023-06-01T14:20:41;3.78;;;3.13;;
2840;SDS011;53423;49.224;12.074;2023-06-01T14:23:09;3.80;;;3.00;;
2840;SDS011;53423;49.224;12.074;2023-06-01T14:25:39;4.53;;;3.20;;
2840;SDS011;53423;49.224;12.074;2023-06-01T14:28:07;3.03;;;2.70;;
2840;SDS011;53423;49.224;12.074;2023-06-01T14:30:35;4.85;;;3.00;;
2840;SDS011;53423;49.224;12.074;2023-06-01T14:33:03;3.30;;;2.70;;
2840;SDS011;53423;49.224;12.074;2023-06-01T14:35:31;3.20;;;3.00;;
2840;SDS011;53423;49.224;12.074;2023-06-01T14:37:59;2.83;;;2.63;;
2840;SDS011;53423;49.224;12.074;2023-06-01T14:40:27;2.95;;;2.75;;
2840;SDS011;53423;49.224;12.074;2023-06-01T14:42:57;3.65;;;2.88;;
2840;SDS011;53423;49.224;12.074;2023-06-01T14:45:25;3.33;;;2.95;;
2840;SDS011;53423;49.224;12.074;2023-06-01T14:47:53;2.95;;;2.75;;
2840;SDS011;53423;49.224;12.074;2023-06-01T14:50:21;3.80;;;2.72;;
2840;SDS011;53423;49.224;12.074;2023-06-01T14:52:49;5.05;;;2.80;;
2840;SDS011;53423;49.224;12.074;2023-06-01T14:55:17;4.22;;;2.75;;
2840;SDS011;53423;49.224;12.074;2023-06-01T14:57:45;3.95;;;2.90;;
2840;SDS011;53423;49.224;12.074;2023-06-01T15:00:15;3.05;;;2.72;;
2840;SDS011;53423;49.224;12.074;2023-06-01T15:02:44;3.33;;;2.97;;
2840;SDS011;53423;49.224;12.074;2023-06-01T15:05:15;3.03;;;2.75;;
2840;SDS011;53423;49.224;12.074;2023-06-01T15:07:43;3.53;;;3.22;;
2840;SDS011;53423;49.224;12.074;2023-06-01T15:10:11;5.60;;;2.67;;
2840;SDS011;53423;49.224;12.074;2023-06-01T15:12:39;4.18;;;2.65;;
2840;SDS011;53423;49.224;12.074;2023-06-01T15:15:07;5.10;;;3.17;;
2840;SDS011;53423;49.224;12.074;2023-06-01T15:17:37;3.17;;;2.72;;
2840;SDS011;53423;49.224;12.074;2023-06-01T15:20:06;4.05;;;3.17;;
2840;SDS011;53423;49.224;12.074;2023-06-01T15:22:34;4.45;;;2.90;;
2840;SDS011;53423;49.224;12.074;2023-06-01T15:25:03;3.20;;;2.90;;
2840;SDS011;53423;49.224;12.074;2023-06-01T15:27:32;4.22;;;2.80;;
2840;SDS011;53423;49.224;12.074;2023-06-01T15:30:00;4.85;;;2.90;;